sensor_id;sensor_type;location;lat;lon;timestamp;P1;durP1;ratioP1;P2;durP2;ratioP2
60665;SDS011;59128;44.642;21.188;2023-04-15T00:00:09;79.20;;;56.33;;
60665;SDS011;59128;44.642;21.188;2023-04-15T00:02:35;40.88;;;28.27;;
60665;SDS011;59128;44.642;21.188;2023-04-15T00:05:01;37.38;;;25.92;;
60665;SDS011;59128;44.642;21.188;2023-04-15T00:07:27;26.45;;;18.48;;
60665;SDS011;59128;44.642;21.188;2023-04-15T00:09:54;21.50;;;15.25;;
60665;SDS011;59128;44.642;21.188;2023-04-15T00:12:22;75.45;;;53.58;;
60665;SDS011;59128;44.642;21.188;2023-04-15T00:14:48;61.50;;;43.73;;
60665;SDS011;59128;44.642;21.188;2023-04-15T00:17:15;21.35;;;14.75;;
60665;SDS011;59128;44.642;21.188;2023-04-15T00:19:41;14.07;;;9.98;;
60665;SDS011;59128;44.642;21.188;2023-04-15T00:22:08;10.93;;;7.97;;
60665;SDS011;59128;44.642;21.188;2023-04-15T00:24:35;14.90;;;10.48;;
60665;SDS011;59128;44.642;21.188;2023-04-15T00:27:01;7.90;;;6.03;;
60665;SDS011;59128;44.642;21.188;2023-04-15T00:29:27;10.70;;;7.00;;
60665;SDS011;59128;44.642;21.188;2023-04-15T00:31:54;15.13;;;9.97;;
60665;SDS011;59128;44.642;21.188;2023-04-15T00:34:21;14.00;;;9.38;;
60665;SDS011;59128;44.642;21.188;2023-04-15T00:36:47;33.35;;;17.20;;
60665;SDS011;59128;44.642;21.188;2023-04-15T00:39:13;23.02;;;13.40;;
60665;SDS011;59128;44.642;21.188;2023-04-15T00:41:40;17.17;;;10.70;;
60665;SDS011;59128;44.642;21.188;2023-04-15T00:44:06;22.80;;;12.65;;
60665;SDS011;59128;44.642;21.188;2023-04-15T00:46:36;16.23;;;10.45;;
60665;SDS011;59128;44.642;21.188;2023-04-15T00:49:03;12.20;;;8.48;;
60665;SDS011;59128;44.642;21.188;2023-04-15T00:51:30;12.23;;;8.80;;
60665;SDS011;59128;44.642;21.188;2023-04-15T00:53:57;14.73;;;10.55;;
60665;SDS011;59128;44.642;21.188;2023-04-15T00:56:24;36.10;;;26.83;;
60665;SDS011;59128;44.642;21.188;2023-04-15T00:58:51;63.85;;;42.10;;
60665;SDS011;59128;44.642;21.188;2023-04-15T01:01:19;64.63;;;43.92;;
60665;SDS011;59128;44.642;21.188;2023-04-15T01:03:46;72.85;;;49.30;;
60665;SDS011;59128;44.642;21.188;2023-04-15T01:06:13;64.43;;;44.45;;
60665;SDS011;59128;44.642;21.188;2023-04-15T01:08:39;49.95;;;34.65;;
60665;SDS011;59128;44.642;21.188;2023-04-15T01:11:05;23.23;;;17.05;;
60665;SDS011;59128;44.642;21.188;2023-04-15T01:13:32;17.93;;;12.90;;
60665;SDS011;59128;44.642;21.188;2023-04-15T01:15:59;16.23;;;12.10;;
60665;SDS011;59128;44.642;21.188;2023-04-15T01:18:26;18.10;;;12.73;;
60665;SDS011;59128;44.642;21.188;2023-04-15T01:20:53;19.95;;;14.40;;
60665;SDS011;59128;44.642;21.188;2023-04-15T01:23:19;49.53;;;32.42;;
60665;SDS011;59128;44.642;21.188;2023-04-15T01:25:47;58.87;;;37.20;;
60665;SDS011;59128;44.642;21.188;2023-04-15T01:28:13;69.73;;;47.10;;
60665;SDS011;59128;44.642;21.188;2023-04-15T01:30:40;59.67;;;38.80;;
60665;SDS011;59128;44.642;21.188;2023-04-15T01:33:06;66.75;;;42.67;;
60665;SDS011;59128;44.642;21.188;2023-04-15T01:35:33;57.75;;;39.30;;
60665;SDS011;59128;44.642;21.188;2023-04-15T01:38:06;94.47;;;71.32;;
60665;SDS011;59128;44.642;21.188;2023-04-15T01:40:32;103.82;;;76.43;;
60665;SDS011;59128;44.642;21.188;2023-04-15T01:42:59;86.30;;;60.75;;
60665;SDS011;59128;44.642;21.188;2023-04-15T01:45:25;45.17;;;31.05;;
60665;SDS011;59128;44.642;21.188;2023-04-15T01:47:51;27.92;;;18.25;;
60665;SDS011;59128;44.642;21.188;2023-04-15T01:50:18;29.55;;;19.05;;
60665;SDS011;59128;44.642;21.188;2023-04-15T01:52:44;34.78;;;21.52;;
60665;SDS011;59128;44.642;21.188;2023-04-15T01:55:11;30.20;;;20.38;;
60665;SDS011;59128;44.642;21.188;2023-04-15T01:57:38;30.70;;;21.15;;
60665;SDS011;59128;44.642;21.188;2023-04-15T02:00:04;25.88;;;17.70;;
60665;SDS011;59128;44.642;21.188;2023-04-15T02:02:31;22.08;;;14.60;;
60665;SDS011;59128;44.642;21.188;2023-04-15T02:04:58;20.05;;;12.60;;
60665;SDS011;59128;44.642;21.188;2023-04-15T02:07:24;18.75;;;12.50;;
60665;SDS011;59128;44.642;21.188;2023-04-15T02:09:51;19.25;;;11.80;;
60665;SDS011;59128;44.642;21.188;2023-04-15T02:12:17;18.17;;;11.73;;
60665;SDS011;59128;44.642;21.188;2023-04-15T02:14:43;18.93;;;12.47;;
60665;SDS011;59128;44.642;21.188;2023-04-15T02:17:09;15.65;;;10.25;;
60665;SDS011;59128;44.642;21.188;2023-04-15T02:19:36;16.50;;;10.05;;
60665;SDS011;59128;44.642;21.188;2023-04-15T02:22:03;13.30;;;8.00;;
60665;SDS011;59128;44.642;21.188;2023-04-15T02:24:31;13.60;;;8.80;;
60665;SDS011;59128;44.642;21.188;2023-04-15T02:26:57;11.37;;;7.20;;
60665;SDS011;59128;44.642;21.188;2023-04-15T02:29:23;11.73;;;7.40;;
60665;SDS011;59128;44.642;21.188;2023-04-15T02:31:49;11.55;;;6.90;;
60665;SDS011;59128;44.642;21.188;2023-04-15T02:34:15;11.20;;;6.90;;
60665;SDS011;59128;44.642;21.188;2023-04-15T02:36:41;12.68;;;7.80;;
60665;SDS011;59128;44.642;21.188;2023-04-15T02:39:07;11.55;;;7.80;;
60665;SDS011;59128;44.642;21.188;2023-04-15T02:41:33;13.43;;;8.13;;
60665;SDS011;59128;44.642;21.188;2023-04-15T02:44:00;12.73;;;8.20;;
60665;SDS011;59128;44.642;21.188;2023-04-15T02:46:26;12.40;;;7.75;;
60665;SDS011;59128;44.642;21.188;2023-04-15T02:48:52;12.02;;;7.43;;
60665;SDS011;59128;44.642;21.188;2023-04-15T02:51:19;10.55;;;7.35;;
60665;SDS011;59128;44.642;21.188;2023-04-15T02:53:47;12.35;;;7.50;;
60665;SDS011;59128;44.642;21.188;2023-04-15T02:56:13;11.55;;;7.45;;
60665;SDS011;59128;44.642;21.188;2023-04-15T02:58:42;13.75;;;10.10;;
60665;SDS011;59128;44.642;21.188;2023-04-15T03:01:14;11.80;;;8.35;;
60665;SDS011;59128;44.642;21.188;2023-04-15T03:03:41;10.30;;;7.68;;
60665;SDS011;59128;44.642;21.188;2023-04-15T03:06:07;10.47;;;7.07;;
60665;SDS011;59128;44.642;21.188;2023-04-15T03:08:33;10.48;;;6.72;;
60665;SDS011;59128;44.642;21.188;2023-04-15T03:11:00;13.37;;;8.23;;
60665;SDS011;59128;44.642;21.188;2023-04-15T03:13:26;23.17;;;13.02;;
60665;SDS011;59128;44.642;21.188;2023-04-15T03:15:52;18.13;;;11.95;;
60665;SDS011;59128;44.642;21.188;2023-04-15T03:18:18;24.30;;;17.98;;
60665;SDS011;59128;44.642;21.188;2023-04-15T03:20:45;16.88;;;10.77;;
60665;SDS011;59128;44.642;21.188;2023-04-15T03:23:11;13.00;;;7.65;;
60665;SDS011;59128;44.642;21.188;2023-04-15T03:25:37;14.00;;;9.23;;
60665;SDS011;59128;44.642;21.188;2023-04-15T03:28:03;11.70;;;7.90;;
60665;SDS011;59128;44.642;21.188;2023-04-15T03:30:29;10.25;;;6.07;;
60665;SDS011;59128;44.642;21.188;2023-04-15T03:32:55;9.60;;;5.68;;
60665;SDS011;59128;44.642;21.188;2023-04-15T03:35:21;8.23;;;5.50;;
60665;SDS011;59128;44.642;21.188;2023-04-15T03:37:47;10.38;;;7.18;;
60665;SDS011;59128;44.642;21.188;2023-04-15T03:40:13;10.95;;;7.22;;
60665;SDS011;59128;44.642;21.188;2023-04-15T03:42:40;11.75;;;8.27;;
60665;SDS011;59128;44.642;21.188;2023-04-15T03:45:06;72.60;;;46.42;;
60665;SDS011;59128;44.642;21.188;2023-04-15T03:47:32;53.58;;;42.17;;
60665;SDS011;59128;44.642;21.188;2023-04-15T03:49:58;23.42;;;21.15;;
60665;SDS011;59128;44.642;21.188;2023-04-15T03:52:24;12.23;;;11.02;;
60665;SDS011;59128;44.642;21.188;2023-04-15T03:54:50;9.48;;;8.23;;
60665;SDS011;59128;44.642;21.188;2023-04-15T03:57:17;9.35;;;7.18;;
60665;SDS011;59128;44.642;21.188;2023-04-15T03:59:43;6.78;;;5.43;;
60665;SDS011;59128;44.642;21.188;2023-04-15T04:02:09;10.75;;;7.47;;
60665;SDS011;59128;44.642;21.188;2023-04-15T04:04:35;8.80;;;6.20;;
60665;SDS011;59128;44.642;21.188;2023-04-15T04:07:01;6.05;;;4.28;;
60665;SDS011;59128;44.642;21.188;2023-04-15T04:09:27;6.30;;;4.05;;
60665;SDS011;59128;44.642;21.188;2023-04-15T04:11:53;5.85;;;3.88;;
60665;SDS011;59128;44.642;21.188;2023-04-15T04:14:20;7.05;;;4.30;;
60665;SDS011;59128;44.642;21.188;2023-04-15T04:16:53;8.83;;;5.17;;
60665;SDS011;59128;44.642;21.188;2023-04-15T04:19:19;10.02;;;5.25;;
60665;SDS011;59128;44.642;21.188;2023-04-15T04:21:45;9.25;;;5.07;;
60665;SDS011;59128;44.642;21.188;2023-04-15T04:24:11;7.43;;;4.57;;
60665;SDS011;59128;44.642;21.188;2023-04-15T04:26:37;9.30;;;5.60;;
60665;SDS011;59128;44.642;21.188;2023-04-15T04:29:03;7.45;;;4.00;;
60665;SDS011;59128;44.642;21.188;2023-04-15T04:31:29;8.05;;;4.75;;
60665;SDS011;59128;44.642;21.188;2023-04-15T04:33:55;6.68;;;4.40;;
60665;SDS011;59128;44.642;21.188;2023-04-15T04:36:21;6.43;;;4.10;;
60665;SDS011;59128;44.642;21.188;2023-04-15T04:38:47;6.60;;;4.50;;
60665;SDS011;59128;44.642;21.188;2023-04-15T04:41:13;6.68;;;3.90;;
60665;SDS011;59128;44.642;21.188;2023-04-15T04:43:39;6.35;;;3.80;;
60665;SDS011;59128;44.642;21.188;2023-04-15T04:46:05;6.43;;;4.10;;
60665;SDS011;59128;44.642;21.188;2023-04-15T04:48:31;7.53;;;4.55;;
60665;SDS011;59128;44.642;21.188;2023-04-15T04:50:57;7.25;;;4.85;;
60665;SDS011;59128;44.642;21.188;2023-04-15T04:53:23;8.18;;;5.05;;
60665;SDS011;59128;44.642;21.188;2023-04-15T04:55:50;12.82;;;6.50;;
60665;SDS011;59128;44.642;21.188;2023-04-15T04:58:16;14.00;;;7.75;;
60665;SDS011;59128;44.642;21.188;2023-04-15T05:00:42;14.65;;;7.72;;
60665;SDS011;59128;44.642;21.188;2023-04-15T05:03:08;9.00;;;6.40;;
60665;SDS011;59128;44.642;21.188;2023-04-15T05:05:34;9.27;;;5.95;;
60665;SDS011;59128;44.642;21.188;2023-04-15T05:08:03;9.20;;;6.05;;
60665;SDS011;59128;44.642;21.188;2023-04-15T05:10:29;9.60;;;6.20;;
60665;SDS011;59128;44.642;21.188;2023-04-15T05:12:56;10.50;;;6.70;;
60665;SDS011;59128;44.642;21.188;2023-04-15T05:15:22;10.10;;;6.93;;
60665;SDS011;59128;44.642;21.188;2023-04-15T05:17:48;11.70;;;7.85;;
60665;SDS011;59128;44.642;21.188;2023-04-15T05:20:14;9.38;;;6.57;;
60665;SDS011;59128;44.642;21.188;2023-04-15T05:22:40;10.63;;;6.60;;
60665;SDS011;59128;44.642;21.188;2023-04-15T05:25:06;11.35;;;6.75;;
60665;SDS011;59128;44.642;21.188;2023-04-15T05:27:33;12.53;;;8.13;;
60665;SDS011;59128;44.642;21.188;2023-04-15T05:29:59;14.40;;;10.05;;
60665;SDS011;59128;44.642;21.188;2023-04-15T05:32:25;13.20;;;9.47;;
60665;SDS011;59128;44.642;21.188;2023-04-15T05:34:51;10.30;;;7.65;;
60665;SDS011;59128;44.642;21.188;2023-04-15T05:37:17;11.68;;;8.10;;
60665;SDS011;59128;44.642;21.188;2023-04-15T05:39:45;10.40;;;6.93;;
60665;SDS011;59128;44.642;21.188;2023-04-15T05:42:11;8.68;;;6.15;;
60665;SDS011;59128;44.642;21.188;2023-04-15T05:44:37;9.73;;;6.63;;
60665;SDS011;59128;44.642;21.188;2023-04-15T05:47:03;9.00;;;6.65;;
60665;SDS011;59128;44.642;21.188;2023-04-15T05:49:29;10.82;;;7.32;;
60665;SDS011;59128;44.642;21.188;2023-04-15T05:51:55;8.43;;;6.10;;
60665;SDS011;59128;44.642;21.188;2023-04-15T05:54:22;10.40;;;6.90;;
60665;SDS011;59128;44.642;21.188;2023-04-15T05:56:48;5.88;;;4.13;;
60665;SDS011;59128;44.642;21.188;2023-04-15T05:59:14;5.23;;;3.60;;
60665;SDS011;59128;44.642;21.188;2023-04-15T06:01:40;4.43;;;3.00;;
60665;SDS011;59128;44.642;21.188;2023-04-15T06:04:06;5.03;;;3.70;;
60665;SDS011;59128;44.642;21.188;2023-04-15T06:06:33;7.37;;;4.73;;
60665;SDS011;59128;44.642;21.188;2023-04-15T06:08:59;5.38;;;3.47;;
60665;SDS011;59128;44.642;21.188;2023-04-15T06:11:26;7.25;;;4.13;;
60665;SDS011;59128;44.642;21.188;2023-04-15T06:13:52;6.90;;;3.77;;
60665;SDS011;59128;44.642;21.188;2023-04-15T06:16:18;7.13;;;3.90;;
60665;SDS011;59128;44.642;21.188;2023-04-15T06:18:44;9.23;;;5.10;;
60665;SDS011;59128;44.642;21.188;2023-04-15T06:21:10;6.90;;;4.05;;
60665;SDS011;59128;44.642;21.188;2023-04-15T06:23:36;5.82;;;3.55;;
60665;SDS011;59128;44.642;21.188;2023-04-15T06:26:05;6.47;;;4.17;;
60665;SDS011;59128;44.642;21.188;2023-04-15T06:28:31;8.15;;;4.60;;
60665;SDS011;59128;44.642;21.188;2023-04-15T06:30:57;10.40;;;5.88;;
60665;SDS011;59128;44.642;21.188;2023-04-15T06:33:23;9.00;;;4.60;;
60665;SDS011;59128;44.642;21.188;2023-04-15T06:35:49;8.52;;;4.97;;
60665;SDS011;59128;44.642;21.188;2023-04-15T06:38:15;10.95;;;5.40;;
60665;SDS011;59128;44.642;21.188;2023-04-15T06:40:41;4.97;;;3.40;;
60665;SDS011;59128;44.642;21.188;2023-04-15T06:43:07;5.07;;;3.28;;
60665;SDS011;59128;44.642;21.188;2023-04-15T06:45:34;6.10;;;3.95;;
60665;SDS011;59128;44.642;21.188;2023-04-15T06:48:00;5.28;;;3.60;;
60665;SDS011;59128;44.642;21.188;2023-04-15T06:50:26;4.13;;;2.70;;
60665;SDS011;59128;44.642;21.188;2023-04-15T06:52:53;4.65;;;2.80;;
60665;SDS011;59128;44.642;21.188;2023-04-15T06:55:19;2.88;;;2.00;;
60665;SDS011;59128;44.642;21.188;2023-04-15T06:57:45;4.63;;;2.72;;
60665;SDS011;59128;44.642;21.188;2023-04-15T07:00:11;5.60;;;2.90;;
60665;SDS011;59128;44.642;21.188;2023-04-15T07:02:37;2.92;;;2.03;;
60665;SDS011;59128;44.642;21.188;2023-04-15T07:05:04;2.95;;;1.73;;
60665;SDS011;59128;44.642;21.188;2023-04-15T07:07:31;3.47;;;1.85;;
60665;SDS011;59128;44.642;21.188;2023-04-15T07:09:57;4.68;;;3.15;;
60665;SDS011;59128;44.642;21.188;2023-04-15T07:12:23;3.95;;;2.78;;
60665;SDS011;59128;44.642;21.188;2023-04-15T07:14:50;3.13;;;2.30;;
60665;SDS011;59128;44.642;21.188;2023-04-15T07:17:16;3.05;;;2.20;;
60665;SDS011;59128;44.642;21.188;2023-04-15T07:19:42;4.40;;;2.72;;
60665;SDS011;59128;44.642;21.188;2023-04-15T07:22:08;3.08;;;2.42;;
60665;SDS011;59128;44.642;21.188;2023-04-15T07:24:34;2.15;;;1.48;;
60665;SDS011;59128;44.642;21.188;2023-04-15T07:27:00;3.00;;;2.20;;
60665;SDS011;59128;44.642;21.188;2023-04-15T07:29:26;2.15;;;1.40;;
60665;SDS011;59128;44.642;21.188;2023-04-15T07:31:52;1.60;;;1.10;;
60665;SDS011;59128;44.642;21.188;2023-04-15T07:34:18;1.85;;;1.40;;
60665;SDS011;59128;44.642;21.188;2023-04-15T07:36:45;2.38;;;1.50;;
60665;SDS011;59128;44.642;21.188;2023-04-15T07:39:14;1.77;;;1.27;;
60665;SDS011;59128;44.642;21.188;2023-04-15T07:41:40;2.55;;;1.77;;
60665;SDS011;59128;44.642;21.188;2023-04-15T07:44:06;1.63;;;1.50;;
60665;SDS011;59128;44.642;21.188;2023-04-15T07:46:33;3.33;;;2.95;;
60665;SDS011;59128;44.642;21.188;2023-04-15T07:48:59;1.83;;;1.30;;
60665;SDS011;59128;44.642;21.188;2023-04-15T07:51:25;1.95;;;1.50;;
60665;SDS011;59128;44.642;21.188;2023-04-15T07:53:51;2.63;;;1.52;;
60665;SDS011;59128;44.642;21.188;2023-04-15T07:56:18;4.38;;;1.20;;
60665;SDS011;59128;44.642;21.188;2023-04-15T07:58:45;2.30;;;1.33;;
60665;SDS011;59128;44.642;21.188;2023-04-15T08:01:11;4.55;;;2.47;;
60665;SDS011;59128;44.642;21.188;2023-04-15T08:03:38;3.28;;;1.98;;
60665;SDS011;59128;44.642;21.188;2023-04-15T08:06:04;1.58;;;1.38;;
60665;SDS011;59128;44.642;21.188;2023-04-15T08:08:30;3.42;;;3.13;;
60665;SDS011;59128;44.642;21.188;2023-04-15T08:10:57;3.03;;;2.30;;
60665;SDS011;59128;44.642;21.188;2023-04-15T08:13:23;3.80;;;3.17;;
60665;SDS011;59128;44.642;21.188;2023-04-15T08:15:56;3.80;;;2.33;;
60665;SDS011;59128;44.642;21.188;2023-04-15T08:18:38;1.75;;;1.25;;
60665;SDS011;59128;44.642;21.188;2023-04-15T08:21:04;3.95;;;2.00;;
60665;SDS011;59128;44.642;21.188;2023-04-15T08:23:30;5.25;;;2.30;;
60665;SDS011;59128;44.642;21.188;2023-04-15T08:25:57;2.55;;;1.77;;
60665;SDS011;59128;44.642;21.188;2023-04-15T08:28:23;1.40;;;1.30;;
60665;SDS011;59128;44.642;21.188;2023-04-15T08:30:49;1.42;;;1.30;;
60665;SDS011;59128;44.642;21.188;2023-04-15T08:33:17;4.60;;;1.80;;
60665;SDS011;59128;44.642;21.188;2023-04-15T08:35:43;2.83;;;1.83;;
60665;SDS011;59128;44.642;21.188;2023-04-15T08:38:09;1.40;;;1.20;;
60665;SDS011;59128;44.642;21.188;2023-04-15T08:40:44;1.73;;;0.88;;
60665;SDS011;59128;44.642;21.188;2023-04-15T08:43:18;1.08;;;0.70;;
60665;SDS011;59128;44.642;21.188;2023-04-15T08:45:48;1.30;;;0.52;;
60665;SDS011;59128;44.642;21.188;2023-04-15T08:48:16;2.75;;;1.02;;
60665;SDS011;59128;44.642;21.188;2023-04-15T08:50:42;2.08;;;1.20;;
60665;SDS011;59128;44.642;21.188;2023-04-15T08:53:09;2.22;;;1.40;;
60665;SDS011;59128;44.642;21.188;2023-04-15T08:55:35;3.00;;;1.75;;
60665;SDS011;59128;44.642;21.188;2023-04-15T08:58:06;3.72;;;0.95;;
60665;SDS011;59128;44.642;21.188;2023-04-15T09:00:33;3.28;;;1.20;;
60665;SDS011;59128;44.642;21.188;2023-04-15T09:02:59;2.38;;;1.33;;
60665;SDS011;59128;44.642;21.188;2023-04-15T09:05:25;0.82;;;0.73;;
60665;SDS011;59128;44.642;21.188;2023-04-15T09:07:51;2.55;;;1.13;;
60665;SDS011;59128;44.642;21.188;2023-04-15T09:10:17;2.33;;;0.98;;
60665;SDS011;59128;44.642;21.188;2023-04-15T09:12:43;1.42;;;0.90;;
60665;SDS011;59128;44.642;21.188;2023-04-15T09:15:12;2.13;;;1.40;;
60665;SDS011;59128;44.642;21.188;2023-04-15T09:17:42;1.85;;;1.27;;
60665;SDS011;59128;44.642;21.188;2023-04-15T09:20:09;1.15;;;0.98;;
60665;SDS011;59128;44.642;21.188;2023-04-15T09:22:37;1.48;;;0.90;;
60665;SDS011;59128;44.642;21.188;2023-04-15T09:25:03;2.58;;;1.38;;
60665;SDS011;59128;44.642;21.188;2023-04-15T09:27:29;1.42;;;1.00;;
60665;SDS011;59128;44.642;21.188;2023-04-15T09:29:55;2.35;;;1.13;;
60665;SDS011;59128;44.642;21.188;2023-04-15T09:32:21;1.77;;;1.17;;
60665;SDS011;59128;44.642;21.188;2023-04-15T09:34:48;1.85;;;1.33;;
60665;SDS011;59128;44.642;21.188;2023-04-15T09:37:14;2.00;;;1.10;;
60665;SDS011;59128;44.642;21.188;2023-04-15T09:39:45;1.92;;;1.30;;
60665;SDS011;59128;44.642;21.188;2023-04-15T09:42:12;1.83;;;0.90;;
60665;SDS011;59128;44.642;21.188;2023-04-15T09:44:38;5.53;;;1.40;;
60665;SDS011;59128;44.642;21.188;2023-04-15T09:47:04;1.87;;;1.30;;
60665;SDS011;59128;44.642;21.188;2023-04-15T09:49:30;1.55;;;1.30;;
60665;SDS011;59128;44.642;21.188;2023-04-15T09:51:58;2.40;;;1.60;;
60665;SDS011;59128;44.642;21.188;2023-04-15T09:54:26;2.42;;;1.92;;
60665;SDS011;59128;44.642;21.188;2023-04-15T09:57:03;2.83;;;1.85;;
60665;SDS011;59128;44.642;21.188;2023-04-15T09:59:30;1.88;;;1.02;;
60665;SDS011;59128;44.642;21.188;2023-04-15T10:01:56;2.15;;;1.58;;
60665;SDS011;59128;44.642;21.188;2023-04-15T10:04:22;2.53;;;2.05;;
60665;SDS011;59128;44.642;21.188;2023-04-15T10:06:48;2.53;;;1.57;;
60665;SDS011;59128;44.642;21.188;2023-04-15T10:09:15;1.73;;;1.30;;
60665;SDS011;59128;44.642;21.188;2023-04-15T10:11:41;1.90;;;1.27;;
60665;SDS011;59128;44.642;21.188;2023-04-15T10:14:08;1.58;;;1.20;;
60665;SDS011;59128;44.642;21.188;2023-04-15T10:16:36;2.58;;;1.70;;
60665;SDS011;59128;44.642;21.188;2023-04-15T10:19:03;2.00;;;1.30;;
60665;SDS011;59128;44.642;21.188;2023-04-15T10:21:31;2.03;;;1.20;;
60665;SDS011;59128;44.642;21.188;2023-04-15T10:23:58;2.00;;;1.40;;
60665;SDS011;59128;44.642;21.188;2023-04-15T10:26:25;1.65;;;1.30;;
60665;SDS011;59128;44.642;21.188;2023-04-15T10:28:52;2.40;;;1.50;;
60665;SDS011;59128;44.642;21.188;2023-04-15T10:31:18;3.33;;;2.65;;
60665;SDS011;59128;44.642;21.188;2023-04-15T10:33:44;4.55;;;2.88;;
60665;SDS011;59128;44.642;21.188;2023-04-15T10:36:11;2.40;;;1.53;;
60665;SDS011;59128;44.642;21.188;2023-04-15T10:41:17;3.88;;;2.05;;
60665;SDS011;59128;44.642;21.188;2023-04-15T10:43:51;6.13;;;4.33;;
60665;SDS011;59128;44.642;21.188;2023-04-15T10:46:21;18.63;;;13.68;;
60665;SDS011;59128;44.642;21.188;2023-04-15T10:48:49;2.80;;;2.10;;
60665;SDS011;59128;44.642;21.188;2023-04-15T10:51:15;3.00;;;2.20;;
60665;SDS011;59128;44.642;21.188;2023-04-15T10:53:41;6.80;;;4.37;;
60665;SDS011;59128;44.642;21.188;2023-04-15T10:56:08;1.65;;;1.10;;
60665;SDS011;59128;44.642;21.188;2023-04-15T10:58:41;2.40;;;1.77;;
60665;SDS011;59128;44.642;21.188;2023-04-15T11:01:07;10.03;;;7.97;;
60665;SDS011;59128;44.642;21.188;2023-04-15T11:03:37;8.63;;;6.80;;
60665;SDS011;59128;44.642;21.188;2023-04-15T11:06:04;2.08;;;1.80;;
60665;SDS011;59128;44.642;21.188;2023-04-15T11:08:52;2.60;;;1.70;;
60665;SDS011;59128;44.642;21.188;2023-04-15T11:11:18;3.45;;;1.58;;
60665;SDS011;59128;44.642;21.188;2023-04-15T11:13:48;2.03;;;1.57;;
60665;SDS011;59128;44.642;21.188;2023-04-15T11:16:14;2.40;;;1.40;;
60665;SDS011;59128;44.642;21.188;2023-04-15T11:18:40;1.80;;;1.30;;
60665;SDS011;59128;44.642;21.188;2023-04-15T11:21:07;2.08;;;1.08;;
60665;SDS011;59128;44.642;21.188;2023-04-15T11:26:03;2.38;;;1.20;;
60665;SDS011;59128;44.642;21.188;2023-04-15T11:28:32;1.77;;;1.27;;
60665;SDS011;59128;44.642;21.188;2023-04-15T11:31:04;2.00;;;0.80;;
60665;SDS011;59128;44.642;21.188;2023-04-15T11:33:30;1.75;;;0.90;;
60665;SDS011;59128;44.642;21.188;2023-04-15T11:35:56;2.60;;;1.40;;
60665;SDS011;59128;44.642;21.188;2023-04-15T11:38:23;1.95;;;1.23;;
60665;SDS011;59128;44.642;21.188;2023-04-15T11:40:49;2.10;;;1.40;;
60665;SDS011;59128;44.642;21.188;2023-04-15T11:43:17;1.27;;;1.17;;
60665;SDS011;59128;44.642;21.188;2023-04-15T11:45:56;2.50;;;1.40;;
60665;SDS011;59128;44.642;21.188;2023-04-15T11:48:24;2.65;;;2.08;;
60665;SDS011;59128;44.642;21.188;2023-04-15T11:50:54;3.28;;;1.95;;
60665;SDS011;59128;44.642;21.188;2023-04-15T11:53:20;3.10;;;2.35;;
60665;SDS011;59128;44.642;21.188;2023-04-15T11:55:48;5.93;;;4.10;;
60665;SDS011;59128;44.642;21.188;2023-04-15T12:00:51;3.70;;;2.08;;
60665;SDS011;59128;44.642;21.188;2023-04-15T12:06:03;1.80;;;1.40;;
60665;SDS011;59128;44.642;21.188;2023-04-15T12:11:31;4.07;;;3.10;;
60665;SDS011;59128;44.642;21.188;2023-04-15T12:14:43;2.92;;;2.33;;
60665;SDS011;59128;44.642;21.188;2023-04-15T12:16:45;3.03;;;1.70;;
60665;SDS011;59128;44.642;21.188;2023-04-15T12:19:13;3.73;;;1.83;;
60665;SDS011;59128;44.642;21.188;2023-04-15T12:21:42;1.45;;;0.85;;
60665;SDS011;59128;44.642;21.188;2023-04-15T12:24:09;1.15;;;0.82;;
60665;SDS011;59128;44.642;21.188;2023-04-15T12:29:09;1.40;;;0.70;;
60665;SDS011;59128;44.642;21.188;2023-04-15T12:31:35;1.30;;;0.70;;
60665;SDS011;59128;44.642;21.188;2023-04-15T12:34:02;2.53;;;1.50;;
60665;SDS011;59128;44.642;21.188;2023-04-15T12:36:30;7.63;;;5.33;;
60665;SDS011;59128;44.642;21.188;2023-04-15T12:39:00;4.35;;;3.45;;
60665;SDS011;59128;44.642;21.188;2023-04-15T12:41:27;2.85;;;2.10;;
60665;SDS011;59128;44.642;21.188;2023-04-15T12:43:53;4.05;;;2.50;;
60665;SDS011;59128;44.642;21.188;2023-04-15T12:46:19;4.40;;;2.67;;
60665;SDS011;59128;44.642;21.188;2023-04-15T12:48:45;3.72;;;2.22;;
60665;SDS011;59128;44.642;21.188;2023-04-15T12:51:12;4.13;;;2.72;;
60665;SDS011;59128;44.642;21.188;2023-04-15T12:53:38;2.87;;;1.93;;
60665;SDS011;59128;44.642;21.188;2023-04-15T12:56:04;2.78;;;2.08;;
60665;SDS011;59128;44.642;21.188;2023-04-15T12:58:31;3.38;;;1.80;;
60665;SDS011;59128;44.642;21.188;2023-04-15T13:00:57;5.28;;;3.60;;
60665;SDS011;59128;44.642;21.188;2023-04-15T13:03:23;3.45;;;1.95;;
60665;SDS011;59128;44.642;21.188;2023-04-15T13:05:49;4.80;;;3.10;;
60665;SDS011;59128;44.642;21.188;2023-04-15T13:08:16;4.10;;;2.63;;
60665;SDS011;59128;44.642;21.188;2023-04-15T13:10:42;3.15;;;1.77;;
60665;SDS011;59128;44.642;21.188;2023-04-15T13:13:08;5.50;;;2.60;;
60665;SDS011;59128;44.642;21.188;2023-04-15T13:15:34;3.63;;;2.33;;
60665;SDS011;59128;44.642;21.188;2023-04-15T13:18:01;6.05;;;3.40;;
60665;SDS011;59128;44.642;21.188;2023-04-15T13:20:27;5.78;;;3.45;;
60665;SDS011;59128;44.642;21.188;2023-04-15T13:22:53;4.32;;;3.13;;
60665;SDS011;59128;44.642;21.188;2023-04-15T13:25:19;4.53;;;3.03;;
60665;SDS011;59128;44.642;21.188;2023-04-15T13:27:45;7.57;;;4.63;;
60665;SDS011;59128;44.642;21.188;2023-04-15T13:30:12;7.65;;;4.38;;
60665;SDS011;59128;44.642;21.188;2023-04-15T13:32:38;5.80;;;3.70;;
60665;SDS011;59128;44.642;21.188;2023-04-15T13:35:04;8.60;;;5.90;;
60665;SDS011;59128;44.642;21.188;2023-04-15T13:37:30;7.43;;;5.32;;
60665;SDS011;59128;44.642;21.188;2023-04-15T13:39:56;4.85;;;3.88;;
60665;SDS011;59128;44.642;21.188;2023-04-15T13:42:23;3.40;;;2.17;;
60665;SDS011;59128;44.642;21.188;2023-04-15T13:44:49;4.20;;;2.35;;
60665;SDS011;59128;44.642;21.188;2023-04-15T13:47:16;2.58;;;2.20;;
60665;SDS011;59128;44.642;21.188;2023-04-15T13:49:42;3.70;;;2.42;;
60665;SDS011;59128;44.642;21.188;2023-04-15T13:52:09;1.58;;;1.30;;
60665;SDS011;59128;44.642;21.188;2023-04-15T13:54:36;1.92;;;1.15;;
60665;SDS011;59128;44.642;21.188;2023-04-15T13:57:02;4.25;;;2.50;;
60665;SDS011;59128;44.642;21.188;2023-04-15T13:59:28;2.95;;;1.90;;
60665;SDS011;59128;44.642;21.188;2023-04-15T14:01:54;3.33;;;2.00;;
60665;SDS011;59128;44.642;21.188;2023-04-15T14:04:20;3.58;;;2.40;;
60665;SDS011;59128;44.642;21.188;2023-04-15T14:06:46;3.78;;;1.77;;
60665;SDS011;59128;44.642;21.188;2023-04-15T14:09:13;3.13;;;2.25;;
60665;SDS011;59128;44.642;21.188;2023-04-15T14:11:40;4.05;;;2.65;;
60665;SDS011;59128;44.642;21.188;2023-04-15T14:14:06;2.20;;;1.13;;
60665;SDS011;59128;44.642;21.188;2023-04-15T14:16:33;2.00;;;1.40;;
60665;SDS011;59128;44.642;21.188;2023-04-15T14:18:59;4.38;;;3.08;;
60665;SDS011;59128;44.642;21.188;2023-04-15T14:21:25;6.00;;;4.05;;
60665;SDS011;59128;44.642;21.188;2023-04-15T14:23:56;3.85;;;2.60;;
60665;SDS011;59128;44.642;21.188;2023-04-15T14:26:22;2.33;;;1.20;;
60665;SDS011;59128;44.642;21.188;2023-04-15T14:28:49;2.58;;;1.90;;
60665;SDS011;59128;44.642;21.188;2023-04-15T14:31:15;4.15;;;2.17;;
60665;SDS011;59128;44.642;21.188;2023-04-15T14:33:41;2.92;;;1.55;;
60665;SDS011;59128;44.642;21.188;2023-04-15T14:36:08;2.58;;;1.85;;
60665;SDS011;59128;44.642;21.188;2023-04-15T14:38:34;2.05;;;1.63;;
60665;SDS011;59128;44.642;21.188;2023-04-15T14:41:07;2.60;;;1.30;;